Latest Weather Observations for Tidbinbilla

IDN60901

Issued at 9:51 pm EST Saturday 13 July 2024 (issued every 10 minutes, with the page automatically refreshed every 10 minutes)

About weather observations | Map of Canberra area stations | Latest observations for Canberra area | Other Formats
Station Details ID: 250069 Name: TIDBINBILLA (PCS) Lat: -35.46 Lon: 148.94 Height: 883.0 m

Portable automatic weather stations (PAWS) are operated by other organisations, such as Fire and Emergency Services, and are included here by agreement. Portable stations may be deployed to a location for a short period and their location may be subject to change without notice. Wind observations from these stations are provided from heights of either three (3) or ten (10) metres above ground level (AGL).

Data from the previous 72 hours. | See also: Recent months for locations in Aust Capital Territory
Date/Time
EST
Temp
°C
App
Temp
°C
Dew
Point
°C
Rel
Hum
%
Delta-T
°C
Wind Press
QNH
hPa
Press
MSL
hPa
Rain since
9am
mm
Dir  Spd
km/h
Gust
km/h
Spd
kts
Gust
kts
13/09:40pm 5.4 2.7 0.4 70 2.0 S 4 6 2 3 1013.2 - 0.0
13/09:30pm 5.5 2.4 0.4 70 2.1 S 6 6 3 3 1013.2 - 0.0
13/09:20pm 5.6 2.5 0.3 69 2.2 S 6 7 3 4 1013.2 - 0.0
13/09:10pm 5.5 2.2 0.1 68 2.2 S 7 9 4 5 1013.1 - 0.0
13/09:00pm 5.5 2.4 0.3 69 2.1 S 6 6 3 3 1013.1 - 0.0
13/08:50pm 5.5 2.4 0.2 69 2.2 S 6 6 3 3 1013.2 - 0.0
13/08:40pm 5.6 3.3 0.4 69 2.1 SSE 2 6 1 3 1013.1 - 0.0
13/08:30pm 5.9 2.8 0.2 67 2.3 S 6 9 3 5 1013.1 - 0.0
13/08:20pm 5.7 2.4 0.4 69 2.2 S 7 9 4 5 1013.1 - 0.0
13/08:10pm 5.8 2.5 0.3 68 2.3 S 7 9 4 5 1013.1 - 0.0
13/08:00pm 5.7 2.5 0.5 69 2.1 SSE 7 9 4 5 1013.1 - 0.0
13/07:50pm 6.0 2.3 0.2 66 2.4 S 9 11 5 6 1013.1 - 0.0
13/07:40pm 6.0 2.0 0.3 67 2.3 S 11 11 6 6 1013.1 - 0.0
13/07:30pm 6.1 2.0 0.0 65 2.5 SSE 11 13 6 7 1013.1 - 0.0
13/07:20pm 6.0 2.0 0.3 67 2.3 S 11 11 6 6 1013.1 - 0.0
13/07:10pm 6.2 2.2 0.2 65 2.5 S 11 15 6 8 1013.2 - 0.0
13/07:00pm 6.3 1.9 0.2 65 2.5 S 13 15 7 8 1013.0 - 0.0
13/06:50pm 6.5 2.1 0.2 64 2.6 S 13 15 7 8 1013.0 - 0.0
13/06:40pm 6.8 2.8 0.3 63 2.7 S 11 13 6 7 1013.0 - 0.0
13/06:30pm 6.9 1.7 -0.1 61 2.9 S 17 20 9 11 1012.8 - 0.0
13/06:20pm 6.9 1.7 0.1 62 2.8 S 17 22 9 12 1012.7 - 0.0
13/06:10pm 6.8 2.4 0.6 64 2.6 S 13 19 7 10 1012.7 - 0.0
13/06:00pm 7.2 2.4 0.3 61 2.9 S 15 19 8 10 1012.6 - 0.0
13/05:50pm 7.1 3.0 -0.2 60 3.0 S 11 15 6 8 1012.4 - 0.0
13/05:40pm 6.9 3.4 1.2 67 2.4 S 9 15 5 8 1012.3 - 0.0
13/05:30pm 7.0 4.0 1.8 69 2.2 S 7 11 4 6 1012.1 - 0.0
13/05:20pm 7.0 5.8 4.4 83 1.2 CALM 0 4 0 2 1012.1 - 0.0
13/05:10pm 7.2 5.4 5.2 87 0.9 ESE 4 6 2 3 1012.2 - 0.0
13/05:00pm 7.5 5.7 5.3 86 1.0 ENE 4 6 2 3 1012.1 - 0.0
13/04:50pm 7.8 6.8 5.5 85 1.1 CALM 0 2 0 1 1012.0 - 0.0
13/04:40pm 8.5 6.7 5.6 82 1.4 N 4 6 2 3 1012.0 - 0.0
13/04:30pm 9.4 7.1 5.7 78 1.8 NNE 7 7 4 4 1011.9 - 0.0
13/04:20pm 9.9 7.7 5.5 74 2.1 N 6 9 3 5 1011.9 - 0.0
13/04:10pm 9.7 7.0 5.6 75 2.0 N 9 13 5 7 1012.1 - 0.0
13/04:00pm 9.9 7.2 5.6 74 2.1 N 9 11 5 6 1012.1 - 0.0
13/03:50pm 9.8 6.7 5.5 74 2.1 NNE 11 13 6 7 1012.0 - 0.0
13/03:40pm 10.0 6.5 5.5 73 2.2 NNE 13 17 7 9 1012.0 - 0.0
13/03:30pm 10.4 7.3 5.5 71 2.4 N 11 13 6 7 1012.0 - 0.0
13/03:20pm 9.8 6.6 5.0 72 2.3 N 11 13 6 7 1012.0 - 0.0
13/03:10pm 9.3 6.1 4.9 74 2.1 N 11 13 6 7 1012.0 - 0.0
13/03:00pm 9.2 5.6 4.8 74 2.1 N 13 19 7 10 1012.1 - 0.0
13/02:50pm 9.3 5.2 4.5 72 2.2 N 15 19 8 10 1012.2 - 0.0
13/02:40pm 10.8 7.5 4.7 66 2.9 N 11 15 6 8 1012.2 - 0.0
13/02:30pm 11.6 7.9 4.4 61 3.4 N 13 19 7 10 1012.3 - 0.0
13/02:20pm 12.1 8.7 4.1 58 3.8 N 11 17 6 9 1012.3 - 0.0
13/02:10pm 12.4 9.3 3.8 55 4.1 N 9 15 5 8 1012.3 - 0.0
13/02:00pm 12.9 10.0 4.4 56 4.1 N 9 13 5 7 1012.3 - 0.0
13/01:50pm 12.6 9.7 4.5 58 3.9 N 9 13 5 7 1012.3 - 0.0
13/01:40pm 12.7 9.6 3.8 54 4.2 N 9 13 5 7 1012.3 - 0.0
13/01:30pm 12.7 9.7 4.1 56 4.1 N 9 11 5 6 1012.5 - 0.0
13/01:20pm 13.5 10.8 3.6 51 4.7 NNW 7 11 4 6 1012.6 - 0.0
13/01:10pm 13.3 10.1 3.2 50 4.7 NW 9 13 5 7 1012.7 - 0.0
13/01:00pm 13.0 10.4 4.2 55 4.2 NNW 7 13 4 7 1012.8 - 0.0
13/12:50pm 12.9 9.7 3.2 51 4.5 NNW 9 15 5 8 1012.9 - 0.0
13/12:40pm 12.6 9.4 3.3 53 4.4 N 9 15 5 8 1013.1 - 0.0
13/12:30pm 12.0 8.8 3.2 55 4.1 N 9 13 5 7 1013.2 - 0.0
13/12:20pm 12.2 8.9 4.3 58 3.8 N 11 15 6 8 1013.4 - 0.0
13/12:10pm 12.4 9.4 4.3 57 3.9 NNW 9 11 5 6 1013.6 - 0.0
13/12:00pm 12.4 9.6 3.4 54 4.2 NNW 7 9 4 5 1013.7 - 0.0
13/11:50am 11.9 9.2 3.9 58 3.8 NNW 7 9 4 5 1013.9 - 0.0
13/11:40am 11.7 8.5 3.3 56 3.9 N 9 11 5 6 1014.1 - 0.0
13/11:30am 11.0 8.0 4.0 62 3.3 NNE 9 11 5 6 1014.3 - 0.0
13/11:20am 10.9 7.8 3.7 61 3.4 N 9 11 5 6 1014.5 - 0.0
13/11:10am 10.9 7.9 4.1 63 3.2 N 9 13 5 7 1014.6 - 0.0
13/11:00am 10.5 7.5 4.3 65 2.9 NNE 9 11 5 6 1014.7 - 0.0
13/10:50am 10.5 7.4 3.4 61 3.3 N 9 11 5 6 1014.8 - 0.0
13/10:40am 10.7 7.7 4.3 64 3.0 N 9 13 5 7 1015.0 - 0.0
13/10:30am 10.4 7.7 3.8 63 3.1 N 7 9 4 5 1015.0 - 0.0
13/10:20am 10.0 7.4 4.4 68 2.6 N 7 9 4 5 1015.1 - 0.0
13/10:10am 9.6 6.9 3.5 66 2.8 N 7 7 4 4 1015.2 - 0.0
13/10:00am 9.7 7.2 3.9 67 2.7 N 6 7 3 4 1015.2 - 0.0
13/09:50am 9.5 7.1 4.2 69 2.5 NNW 6 7 3 4 1015.2 - 0.0
13/09:40am 9.1 6.7 4.2 71 2.3 NNW 6 7 3 4 1015.1 - 0.0
13/09:30am 8.8 5.6 3.3 68 2.5 N 9 9 5 5 1015.1 - 0.0
13/09:20am 8.3 5.1 3.2 70 2.3 NNE 9 11 5 6 1015.0 - 0.0
13/09:10am 8.2 5.0 3.2 71 2.2 NNE 9 9 5 5 1015.0 - 0.0
13/09:00am 8.3 5.8 3.8 73 2.1 N 6 7 3 4 1014.8 - 0.0
13/08:50am 8.3 6.1 3.2 70 2.3 N 4 6 2 3 1014.7 - 0.0
13/08:40am 8.5 6.8 3.8 72 2.1 N 2 4 1 2 1014.6 - 0.0
13/08:30am 8.2 6.6 2.6 68 2.5 CALM 0 4 0 2 1014.7 - 0.0
13/08:20am 7.9 5.6 3.0 71 2.2 NNE 4 6 2 3 1014.7 - 0.0
13/08:10am 7.7 6.2 3.0 72 2.1 CALM 0 0 0 0 1014.6 - 0.0
13/08:00am 7.0 5.4 2.2 71 2.1 CALM 0 2 0 1 1014.7 - 0.0
13/07:50am 6.1 4.0 1.7 73 1.9 SSW 2 4 1 2 1014.7 - 0.0
13/07:40am 5.4 3.3 1.6 76 1.6 S 2 2 1 1 1014.7 - 0.0
13/07:30am 4.5 2.0 1.5 81 1.3 SSW 4 6 2 3 1014.8 - 0.0
13/07:20am 4.3 1.8 1.6 82 1.1 S 4 7 2 4 1014.8 - 0.0
13/07:10am 4.2 1.7 1.8 84 1.0 S 4 7 2 4 1014.8 - 0.0
13/07:00am 4.1 1.2 1.7 84 1.0 S 6 7 3 4 1014.6 - 0.0
13/06:50am 4.0 1.5 1.8 85 0.9 S 4 6 2 3 1014.6 - 0.0
13/06:40am 4.0 1.5 1.8 85 0.9 S 4 6 2 3 1014.6 - 0.0
13/06:30am 3.9 1.8 1.7 85 0.9 SE 2 4 1 2 1014.6 - 0.0
13/06:20am 4.1 2.4 1.9 85 0.9 CALM 0 2 0 1 1014.5 - 0.0
13/06:10am 4.3 2.2 1.9 84 1.0 N 2 6 1 3 1014.4 - 0.0
13/06:00am 4.7 2.6 1.8 81 1.2 NE 2 4 1 2 1014.3 - 0.0
13/05:50am 4.7 2.1 1.2 78 1.5 NNE 4 6 2 3 1014.1 - 0.0
13/05:40am 5.4 3.2 1.1 74 1.8 WSW 2 4 1 2 1014.0 - 0.0
13/05:30am 5.3 2.3 1.0 74 1.8 S 6 7 3 4 1013.9 - 0.0
13/05:20am 5.1 1.9 0.7 73 1.8 SSE 7 9 4 5 1013.8 - 0.0
13/05:10am 4.9 1.8 1.3 77 1.5 SSE 7 7 4 4 1013.8 - 0.0
13/05:00am 4.6 1.5 1.3 79 1.4 S 7 7 4 4 1013.9 - 0.0
13/04:50am 4.4 1.4 2.3 86 0.9 S 7 9 4 5 1013.9 - 0.0
13/04:40am 4.1 1.3 2.3 88 0.8 SSE 6 6 3 3 1013.8 - 0.0
13/04:30am 3.9 1.1 2.3 89 0.7 SSE 6 7 3 4 1013.9 - 0.0
13/04:20am 3.7 1.7 2.3 91 0.6 NNE 2 4 1 2 1014.0 - 0.0
13/04:10am 3.9 1.1 2.3 89 0.7 N 6 7 3 4 1013.9 - 0.0
13/04:00am 4.5 2.1 2.3 86 0.9 NNE 4 7 2 4 1013.9 - 0.0
13/03:50am 4.6 2.6 2.1 84 1.1 E 2 6 1 3 1013.8 - 0.0
13/03:40am 5.1 2.1 2.0 80 1.3 ENE 7 11 4 6 1013.7 - 0.0
13/03:30am 4.9 1.4 1.2 77 1.5 NE 9 11 5 6 1013.7 - 0.0
13/03:20am 5.2 2.4 1.8 79 1.4 N 6 7 3 4 1013.8 - 0.0
13/03:10am 6.3 3.5 2.2 75 1.8 SSE 6 11 3 6 1013.6 - 0.0
13/03:00am 6.6 2.6 0.8 66 2.4 S 11 15 6 8 1013.6 - 0.0
13/02:50am 6.5 2.2 0.8 67 2.4 S 13 15 7 8 1013.7 - 0.0
13/02:40am 6.0 1.7 1.0 70 2.1 S 13 15 7 8 1013.8 - 0.0
13/02:30am 5.5 1.8 2.6 81 1.3 S 11 13 6 7 1013.9 - 0.0
13/02:20am 5.1 1.4 2.4 83 1.2 S 11 11 6 6 1014.0 - 0.0
13/02:10am 4.9 1.2 2.3 83 1.1 S 11 13 6 7 1014.0 - 0.0
13/02:00am 4.3 0.6 2.2 86 0.9 S 11 13 6 7 1014.1 - 0.0
13/01:50am 4.3 1.4 2.6 89 0.7 SSW 7 9 4 5 1014.2 - 0.0
13/01:40am 4.3 1.4 2.6 89 0.7 S 7 11 4 6 1014.2 - 0.0
13/01:30am 4.6 2.3 2.8 88 0.8 NNE 4 7 2 4 1014.3 - 0.0
13/01:20am 5.0 2.3 2.6 84 1.0 N 6 7 3 4 1014.2 - 0.0
13/01:10am 4.7 2.8 2.6 86 0.9 NE 2 6 1 3 1014.0 - 0.0
13/01:00am 4.7 2.8 2.6 86 0.9 ENE 2 4 1 2 1014.1 - 0.0
13/12:50am 5.5 3.2 2.9 83 1.1 NNW 4 6 2 3 1014.0 - 0.0
13/12:40am 6.2 3.4 1.8 73 1.9 NNE 6 7 3 4 1013.9 - 0.0
13/12:30am 6.1 3.8 0.2 66 2.4 SSE 2 4 1 2 1013.9 - 0.0
13/12:20am 5.8 3.5 0.7 70 2.1 SSE 2 4 1 2 1014.0 - 0.0
13/12:10am 5.6 3.2 1.9 77 1.6 S 4 6 2 3 1014.0 - 0.0
13/12:00am 5.5 3.5 2.5 81 1.3 S 2 4 1 2 1014.2 - 0.0
 
Date/Time
EST
Temp
°C
App
Temp
°C
Dew
Point
°C
Rel
Hum
%
Delta-T
°C
Wind Press
QNH
hPa
Press
MSL
hPa
Rain since
9am
mm
Dir  Spd
km/h
Gust
km/h
Spd
kts
Gust
kts
12/11:50pm 5.7 4.1 2.5 80 1.4 CALM 0 2 0 1 1014.3 - 0.0
12/11:40pm 6.0 4.5 2.9 80 1.4 CALM 0 2 0 1 1014.4 - 0.0
12/11:30pm 6.1 4.0 1.4 72 2.0 ENE 2 4 1 2 1014.6 - 0.0
12/11:20pm 6.4 4.5 3.1 79 1.5 N 2 4 1 2 1014.7 - 0.0
12/11:10pm 6.7 3.9 2.2 73 2.0 S 6 6 3 3 1014.7 - 0.0
12/11:00pm 6.5 3.8 2.7 77 1.7 S 6 7 3 4 1014.6 - 0.0
12/10:50pm 6.4 3.6 3.0 79 1.5 S 7 7 4 4 1014.7 - 0.0
12/10:40pm 6.3 3.7 3.2 80 1.4 S 6 6 3 3 1014.9 - 0.0
12/10:30pm 6.2 3.6 3.4 82 1.2 S 6 6 3 3 1015.0 - 0.0
12/10:20pm 6.0 3.5 3.5 84 1.1 SSE 6 7 3 4 1015.1 - 0.0
12/10:10pm 5.9 3.3 3.4 84 1.1 S 6 6 3 3 1015.2 - 0.0
12/10:00pm 5.7 3.9 3.4 85 1.0 SSE 2 4 1 2 1015.4 - 0.0
12/09:50pm 5.7 3.1 3.4 85 1.0 S 6 7 3 4 1015.5 - 0.0
12/09:40pm 5.6 3.1 3.5 86 0.9 SSE 6 7 3 4 1015.5 - 0.0
12/09:30pm 5.6 2.9 3.6 87 0.9 SSE 7 9 4 5 1015.5 - 0.0
12/09:20pm 5.6 2.9 3.7 87 0.8 S 7 7 4 4 1015.5 - 0.0
12/09:10pm 5.5 2.8 3.7 88 0.8 S 7 9 4 5 1015.5 - 0.0
12/09:00pm 5.4 3.3 3.8 89 0.7 S 4 6 2 3 1015.5 - 0.0
12/08:50pm 5.2 3.1 4.0 92 0.5 ESE 4 6 2 3 1015.6 - 0.0
12/08:40pm 5.3 3.2 4.0 91 0.6 WSW 4 6 2 3 1015.6 - 0.0
12/08:30pm 5.4 3.7 3.8 89 0.7 NE 2 4 1 2 1015.5 - 0.0
12/08:20pm 5.4 3.7 4.0 91 0.6 N 2 4 1 2 1015.4 - 0.0
12/08:10pm 5.6 3.9 3.8 88 0.8 WNW 2 6 1 3 1015.3 - 0.0
12/08:00pm 5.4 4.1 3.9 90 0.7 CALM 0 2 0 1 1015.0 - 0.0
12/07:50pm 5.4 3.7 4.0 91 0.6 S 2 6 1 3 1015.0 - 0.0
12/07:40pm 5.7 3.6 3.8 87 0.8 SSW 4 6 2 3 1014.8 - 0.0
12/07:30pm 6.0 4.2 3.5 84 1.1 NNE 2 6 1 3 1014.6 - 0.0
12/07:20pm 6.0 4.2 3.5 84 1.1 NNE 2 6 1 3 1014.5 - 0.0
12/07:10pm 6.1 4.7 3.4 83 1.2 CALM 0 2 0 1 1014.4 - 0.0
12/07:00pm 6.2 3.8 4.3 88 0.9 N 6 7 3 4 1014.3 - 0.0
12/06:50pm 6.2 4.1 4.0 86 1.0 NNW 4 7 2 4 1014.3 - 0.0
12/06:40pm 5.8 4.0 3.4 84 1.1 SSE 2 6 1 3 1014.2 - 0.0
12/06:30pm 5.6 4.3 4.1 90 0.7 CALM 0 2 0 1 1014.2 - 0.0
12/06:20pm 5.5 4.2 4.2 91 0.6 CALM 0 4 0 2 1014.1 - 0.0
12/06:10pm 5.5 3.9 4.4 93 0.5 S 2 6 1 3 1014.1 - 0.0
12/06:00pm 5.5 3.1 4.4 93 0.5 S 6 7 3 4 1014.1 - 0.0
12/05:50pm 5.5 3.2 4.6 94 0.4 S 6 6 3 3 1014.1 - 0.0
12/05:40pm 5.7 3.8 4.7 93 0.5 SSW 4 4 2 2 1014.1 - 0.0
12/05:30pm 5.7 3.8 4.7 93 0.5 S 4 4 2 2 1013.9 - 0.0
12/05:20pm 5.8 3.9 4.7 93 0.5 S 4 4 2 2 1014.0 - 0.0
12/05:10pm 6.0 4.5 4.9 93 0.5 S 2 4 1 2 1014.0 - 0.0
12/05:00pm 6.2 4.7 5.0 92 0.6 S 2 4 1 2 1014.0 - 0.0
12/04:50pm 6.6 5.1 5.1 90 0.7 SSW 2 4 1 2 1014.0 - 0.0
12/04:40pm 6.9 5.4 4.9 87 0.9 ENE 2 4 1 2 1014.0 - 0.0
12/04:30pm 7.1 4.8 4.8 85 1.1 NE 6 6 3 3 1013.9 - 0.0
12/04:20pm 7.5 5.6 5.0 84 1.2 NNE 4 6 2 3 1013.8 - 0.0
12/04:10pm 7.9 6.8 5.3 84 1.2 CALM 0 4 0 2 1013.8 - 0.0
12/04:00pm 8.2 7.2 5.7 84 1.2 CALM 0 0 0 0 1013.7 - 0.0
12/03:50pm 8.5 7.5 5.7 82 1.3 CALM 0 0 0 0 1013.7 - 0.0
12/03:40pm 8.8 7.8 5.8 81 1.4 CALM 0 2 0 1 1013.6 - 0.0
12/03:30pm 9.1 8.1 5.6 79 1.7 CALM 0 2 0 1 1013.6 - 0.0
12/03:20pm 9.4 7.9 5.0 74 2.1 W 2 2 1 1 1013.7 - 0.0
12/03:10pm 9.6 8.2 5.5 75 2.0 SW 2 4 1 2 1013.6 - 0.0
12/03:00pm 9.7 8.3 5.5 75 2.0 SW 2 2 1 1 1013.6 - 0.0
12/02:50pm 9.6 8.2 5.5 75 2.0 NNW 2 2 1 1 1013.6 - 0.0
12/02:40pm 9.5 7.6 4.9 73 2.2 N 4 6 2 3 1013.7 - 0.0
12/02:30pm 9.9 7.6 5.0 71 2.3 N 6 7 3 4 1013.8 - 0.0
12/02:20pm 10.3 8.4 4.8 68 2.6 N 4 6 2 3 1013.7 - 0.0
12/02:10pm 10.9 8.6 4.8 66 2.9 NNW 6 7 3 4 1013.7 - 0.0
12/02:00pm 10.9 8.6 4.8 66 2.9 N 6 9 3 5 1013.7 - 0.0
12/01:50pm 11.0 9.9 5.3 68 2.8 CALM 0 4 0 2 1013.7 - 0.0
12/01:40pm 10.5 8.9 4.3 65 2.9 S 2 4 1 2 1013.7 - 0.0
12/01:30pm 9.7 7.6 3.9 67 2.7 SW 4 4 2 2 1013.8 - 0.0
12/01:20pm 9.3 7.7 4.4 71 2.3 SW 2 4 1 2 1013.8 - 0.0
12/01:10pm 9.1 7.5 4.3 72 2.2 W 2 4 1 2 1013.8 - 0.0
12/01:00pm 8.8 6.4 4.4 74 2.0 S 6 6 3 3 1013.9 - 0.0
12/12:50pm 9.0 6.9 4.0 71 2.3 SW 4 7 2 4 1014.1 - 0.0
12/12:40pm 9.4 7.5 3.1 65 2.9 WSW 2 4 1 2 1014.4 - 0.0
12/12:30pm 9.0 7.2 3.3 67 2.6 N 2 6 1 3 1014.4 - 0.0
12/12:20pm 8.8 5.3 3.6 70 2.4 N 11 17 6 9 1014.6 - 0.0
12/12:10pm 9.5 6.2 4.5 71 2.3 N 11 20 6 11 1014.6 - 0.0
12/12:00pm 8.8 6.6 5.3 79 1.7 E 6 15 3 8 1014.3 - 0.0
12/11:50am 9.5 6.6 4.7 72 2.3 N 9 17 5 9 1014.7 - 0.0
12/11:40am 8.6 6.1 4.9 77 1.7 S 7 11 4 6 1014.4 - 0.0
12/11:30am 8.4 6.6 5.6 82 1.3 SSW 4 6 2 3 1015.0 - 0.0
12/11:20am 8.3 6.9 5.4 82 1.4 SSW 2 6 1 3 1015.2 - 0.0
12/11:10am 7.3 5.9 5.7 89 0.8 SSE 2 4 1 2 1015.4 - 0.0
12/11:00am 6.2 4.4 5.4 95 0.4 W 4 4 2 2 1015.7 - 0.0
12/10:50am 5.0 2.7 4.6 97 0.2 SSW 6 6 3 3 1015.8 - 0.0
12/10:40am 4.9 2.5 4.4 97 0.2 SSW 6 6 3 3 1016.3 - 0.0
12/10:30am 4.7 2.3 4.3 97 0.2 SW 6 7 3 4 1016.6 - 0.0
12/10:20am 4.2 1.2 3.9 98 0.1 NE 9 15 5 8 1016.2 - 0.0
12/10:10am 4.5 2.5 4.3 99 0.1 NNW 4 9 2 5 1016.7 - 0.0
12/10:00am 4.4 2.4 4.2 99 0.1 N 4 7 2 4 1016.3 - 0.0
12/09:50am 4.0 1.3 3.8 99 0.1 N 7 13 4 7 1016.3 - 0.0
12/09:40am 3.9 1.4 3.7 99 0.1 SSW 6 9 3 5 1016.3 - 0.0
12/09:30am 3.3 0.5 3.0 98 0.1 NE 7 11 4 6 1016.1 - 0.0
12/09:20am 2.9 0.2 2.7 99 0.1 N 6 11 3 6 1016.1 - 0.0
12/09:10am 2.8 -0.1 2.6 99 0.1 SSW 7 11 4 6 1016.0 - 0.0
12/09:00am 3.0 1.4 2.7 98 0.1 CALM 0 4 0 2 1016.4 - 0.0
12/08:50am 2.9 0.2 2.7 99 0.1 N 6 7 3 4 1016.6 - 0.0
12/08:40am 3.0 0.3 2.7 98 0.1 E 6 7 3 4 1016.4 - 0.0
12/08:30am 2.7 1.1 2.5 99 0.1 CALM 0 2 0 1 1016.5 - 0.0
12/08:20am 2.2 0.5 2.0 99 0.1 CALM 0 2 0 1 1016.4 - 0.0
12/08:10am 2.1 -0.7 1.9 99 0.1 SSW 6 7 3 4 1016.3 - 0.0
12/08:00am 1.8 -1.1 1.6 99 0.1 S 6 7 3 4 1016.5 - 0.0
12/07:50am 1.6 -0.5 1.5 99 0.0 ESE 2 9 1 5 1016.7 - 0.0
12/07:40am 1.4 -0.4 1.2 99 0.1 CALM 0 4 0 2 1016.6 - 0.0
12/07:30am 1.3 -1.3 1.1 99 0.1 N 4 6 2 3 1016.6 - 0.0
12/07:20am 1.2 -1.4 1.0 99 0.1 N 4 6 2 3 1016.5 - 0.0
12/07:10am 1.0 -1.2 0.8 99 0.1 E 2 7 1 4 1016.4 - 0.0
12/07:00am 0.9 -1.4 0.7 99 0.1 S 2 6 1 3 1016.4 - 0.0
12/06:50am 0.9 -1.7 0.7 99 0.1 S 4 6 2 3 1016.4 - 0.0
12/06:40am 0.9 -1.7 0.7 99 0.1 NNE 4 7 2 4 1016.4 - 0.0
12/06:30am 0.9 -1.0 0.7 99 0.1 CALM 0 2 0 1 1016.4 - 0.0
12/06:20am 1.0 -1.2 0.9 99 0.0 S 2 6 1 3 1016.5 - 0.0
12/06:10am 1.2 -1.4 1.0 99 0.1 S 4 4 2 2 1016.5 - 0.0
12/06:00am 1.2 -0.6 1.1 99 0.0 CALM 0 2 0 1 1016.4 - 0.0
12/05:50am 1.3 -0.5 1.1 99 0.1 CALM 0 0 0 0 1016.3 - 0.0
12/05:40am 1.3 -0.5 1.1 99 0.1 CALM 0 2 0 1 1016.5 - 0.0
12/05:30am 1.3 -0.9 1.1 99 0.1 SSW 2 6 1 3 1016.3 - 0.0
12/05:20am 1.2 -1.0 1.0 99 0.1 S 2 2 1 1 1016.2 - 0.0
12/05:10am 1.2 -1.4 1.0 99 0.1 SSW 4 6 2 3 1016.2 - 0.0
12/05:00am 1.3 -1.7 1.1 99 0.1 N 6 9 3 5 1016.1 - 0.0
12/04:50am 1.4 -0.8 1.2 99 0.1 SE 2 6 1 3 1015.8 - 0.0
12/04:40am 1.5 -1.0 1.3 99 0.1 N 4 7 2 4 1016.1 - 0.0
12/04:30am 1.5 -0.6 1.4 99 0.0 SE 2 4 1 2 1016.1 - 0.0
12/04:20am 1.6 -1.3 1.4 99 0.1 SSW 6 7 3 4 1016.2 - 0.0
12/04:10am 1.7 -1.2 1.5 99 0.1 SSW 6 7 3 4 1016.4 - 0.0
12/04:00am 1.8 -0.7 1.6 99 0.1 SW 4 6 2 3 1016.7 - 0.0
12/03:50am 1.9 -0.6 1.7 99 0.1 SSW 4 4 2 2 1016.5 - 0.0
12/03:40am 1.9 -0.2 1.7 99 0.1 SW 2 6 1 3 1016.9 - 0.0
12/03:30am 1.9 0.2 1.7 99 0.1 CALM 0 4 0 2 1016.7 - 0.0
12/03:20am 2.0 0.3 1.8 99 0.1 CALM 0 4 0 2 1016.8 - 0.0
12/03:10am 2.0 -0.1 1.8 99 0.1 SW 2 4 1 2 1017.0 - 0.0
12/03:00am 1.9 -0.2 1.7 99 0.1 SSE 2 6 1 3 1016.8 - 0.0
12/02:50am 2.0 0.3 1.8 99 0.1 CALM 0 2 0 1 1017.2 - 0.0
12/02:40am 1.8 0.1 1.6 99 0.1 CALM 0 0 0 0 1017.1 - 0.0
12/02:30am 1.7 -0.4 1.5 99 0.1 NNE 2 6 1 3 1017.0 - 0.0
12/02:20am 1.5 -0.7 1.2 98 0.1 NNW 2 4 1 2 1016.8 - 0.0
12/02:10am 1.7 -0.4 1.5 99 0.1 N 2 6 1 3 1016.7 - 0.0
12/02:00am 1.9 -0.6 1.7 99 0.1 NNW 4 6 2 3 1016.7 - 0.0
12/01:50am 2.2 -0.6 2.0 99 0.1 NNE 6 11 3 6 1016.9 - 0.0
12/01:40am 2.3 -0.5 2.1 99 0.1 SW 6 9 3 5 1017.2 - 0.0
12/01:30am 2.5 -0.5 2.3 99 0.1 SSW 7 9 4 5 1017.3 - 0.0
12/01:20am 2.6 0.2 2.4 99 0.1 SSW 4 6 2 3 1017.5 - 0.0
12/01:10am 2.6 0.6 2.4 99 0.1 SSW 2 4 1 2 1017.8 - 0.0
12/01:00am 2.6 0.6 2.4 99 0.1 S 2 4 1 2 1017.8 - 0.0
12/12:50am 2.6 0.6 2.4 99 0.1 W 2 4 1 2 1018.0 - 0.0
12/12:40am 2.7 0.4 2.5 99 0.1 N 4 9 2 5 1017.8 - 0.0
12/12:30am 2.7 0.7 2.5 99 0.1 WNW 2 4 1 2 1017.9 - 0.0
12/12:20am 2.9 1.0 2.7 99 0.1 NNE 2 2 1 1 1017.9 - 0.0
12/12:10am 2.9 1.3 2.7 99 0.1 CALM 0 2 0 1 1017.9 - 0.0
12/12:00am 2.9 0.2 2.7 99 0.1 NNE 6 7 3 4 1018.2 - 0.0
 
Date/Time
EST
Temp
°C
App
Temp
°C
Dew
Point
°C
Rel
Hum
%
Delta-T
°C
Wind Press
QNH
hPa
Press
MSL
hPa
Rain since
9am
mm
Dir  Spd
km/h
Gust
km/h
Spd
kts
Gust
kts
11/11:50pm 2.9 0.6 2.7 99 0.1 S 4 7 2 4 1018.2 - 0.0
11/11:40pm 3.0 0.7 2.8 99 0.1 SSE 4 6 2 3 1018.2 - 0.0
11/11:30pm 3.1 1.2 2.9 99 0.1 WSW 2 4 1 2 1018.5 - 0.0
11/11:20pm 3.1 1.2 2.9 99 0.1 ESE 2 4 1 2 1018.7 - 0.0
11/11:10pm 3.1 1.2 2.9 99 0.1 ENE 2 4 1 2 1018.9 - 0.0
11/11:00pm 3.3 1.4 3.1 99 0.1 NNE 2 6 1 3 1018.9 - 0.0
11/10:50pm 3.3 1.8 3.1 99 0.1 CALM 0 2 0 1 1019.0 - 0.0
11/10:40pm 3.5 2.1 3.3 99 0.1 CALM 0 0 0 0 1019.0 - 0.0
11/10:30pm 3.5 1.7 3.3 99 0.1 SSW 2 4 1 2 1019.2 - 0.0
11/10:20pm 3.6 1.8 3.4 99 0.1 NNE 2 4 1 2 1019.2 - 0.0
11/10:10pm 3.7 1.9 3.4 98 0.1 N 2 6 1 3 1019.3 - 0.0
11/10:00pm 3.7 2.3 3.5 99 0.1 CALM 0 2 0 1 1019.3 - 0.0
11/09:50pm 3.8 2.0 3.6 99 0.1 SSW 2 6 1 3 1019.4 - 0.0
11/09:40pm 3.8 2.0 3.6 99 0.1 SW 2 2 1 1 1019.7 - 0.0
11/09:30pm 3.8 2.4 3.6 99 0.1 CALM 0 0 0 0 1019.7 - 0.0
11/09:20pm 3.9 2.5 3.6 98 0.1 CALM 0 4 0 2 1019.9 - 0.0
11/09:10pm 3.8 1.6 3.6 99 0.1 NNE 4 7 2 4 1019.8 - 0.0
11/09:00pm 3.8 1.3 3.5 98 0.1 NE 6 6 3 3 1019.8 - 0.0
11/08:50pm 3.8 2.0 3.5 98 0.1 E 2 2 1 1 1019.9 - 0.0
11/08:40pm 3.7 1.9 3.5 99 0.1 ESE 2 4 1 2 1020.0 - 0.0
11/08:30pm 3.7 1.9 3.5 99 0.1 SSE 2 6 1 3 1020.0 - 0.0
11/08:20pm 3.7 1.9 3.5 99 0.1 NNW 2 6 1 3 1020.1 - 0.0
11/08:10pm 3.7 1.1 3.4 98 0.1 NNE 6 7 3 4 1019.9 - 0.0
11/08:00pm 3.8 1.3 3.5 98 0.1 N 6 7 3 4 1019.8 - 0.0
11/07:50pm 3.8 2.0 3.5 98 0.1 N 2 6 1 3 1019.7 - 0.0
11/07:40pm 3.8 2.4 3.5 98 0.1 CALM 0 0 0 0 1019.7 - 0.0
11/07:30pm 3.9 2.5 3.6 98 0.1 CALM 0 4 0 2 1019.8 - 0.0
11/07:20pm 3.9 1.7 3.6 98 0.1 N 4 6 2 3 1019.7 - 0.0
11/07:10pm 3.9 2.1 3.6 98 0.1 N 2 4 1 2 1019.8 - 0.0
11/07:00pm 3.9 1.7 3.6 98 0.1 NNE 4 7 2 4 1019.6 - 0.0
11/06:50pm 4.0 1.5 3.7 98 0.1 N 6 7 3 4 1019.6 - 0.0
11/06:40pm 4.1 2.0 3.8 98 0.1 NNW 4 7 2 4 1019.7 - 0.0
11/06:30pm 4.1 2.4 3.8 98 0.1 W 2 6 1 3 1019.6 - 0.0
11/06:20pm 4.2 2.8 3.8 97 0.2 CALM 0 2 0 1 1019.3 - 0.0
11/06:10pm 4.3 2.6 3.9 97 0.2 NNE 2 4 1 2 1019.4 - 0.0
11/06:00pm 4.3 2.6 3.9 97 0.2 N 2 4 1 2 1019.4 - 0.0
11/05:50pm 4.3 2.2 3.9 97 0.2 N 4 6 2 3 1019.6 - 0.0
11/05:40pm 4.3 2.6 3.9 97 0.2 NW 2 4 1 2 1019.0 - 0.0
11/05:30pm 4.4 2.7 4.0 97 0.2 N 2 4 1 2 1019.3 - 0.0
11/05:20pm 4.5 2.8 4.0 97 0.2 NW 2 4 1 2 1019.2 - 0.0
11/05:10pm 4.5 3.2 4.1 97 0.2 CALM 0 2 0 1 1018.9 - 0.0
11/05:00pm 4.6 2.9 4.1 97 0.2 N 2 6 1 3 1018.8 - 0.0
11/04:50pm 4.6 2.9 4.1 97 0.2 W 2 6 1 3 1019.2 - 0.0
11/04:40pm 4.7 3.0 4.2 97 0.2 WNW 2 6 1 3 1019.1 - 0.0
11/04:30pm 4.9 2.9 4.3 96 0.3 N 4 6 2 3 1019.4 - 0.0
11/04:20pm 5.0 3.0 4.4 96 0.3 N 4 6 2 3 1019.4 - 0.0
11/04:10pm 5.3 3.7 4.7 96 0.3 N 2 6 1 3 1019.6 - 0.0
11/04:00pm 5.3 3.7 4.7 96 0.3 N 2 4 1 2 1019.8 - 0.0
11/03:50pm 5.4 3.8 4.7 95 0.3 NNW 2 6 1 3 1019.9 - 0.0
11/03:40pm 5.3 3.7 4.7 96 0.3 W 2 4 1 2 1019.9 - 0.0
11/03:30pm 5.2 3.6 4.6 96 0.3 N 2 4 1 2 1019.9 - 0.0
11/03:20pm 5.3 3.4 4.8 97 0.2 N 4 6 2 3 1020.0 - 0.0
11/03:10pm 5.2 3.3 4.7 97 0.2 N 4 7 2 4 1020.0 - 0.0
11/03:00pm 5.2 3.6 4.7 97 0.2 NW 2 4 1 2 1020.0 - 0.0
11/02:50pm 5.4 3.9 4.9 97 0.2 NNW 2 4 1 2 1020.1 - 0.0
11/02:40pm 5.4 3.5 4.9 97 0.2 N 4 6 2 3 1020.2 - 0.0
11/02:30pm 5.3 3.8 4.9 97 0.2 N 2 6 1 3 1020.4 - 0.0
11/02:20pm 5.3 3.8 4.9 97 0.2 WNW 2 4 1 2 1020.4 - 0.0
11/02:10pm 5.3 3.4 4.9 97 0.2 NW 4 6 2 3 1020.4 - 0.0
11/02:00pm 5.6 3.8 5.2 97 0.2 NNW 4 6 2 3 1020.7 - 0.0
11/01:50pm 5.5 3.6 5.1 97 0.2 NNW 4 6 2 3 1020.6 - 0.0
11/01:40pm 5.3 3.4 4.9 97 0.2 N 4 6 2 3 1020.6 - 0.0
11/01:30pm 5.1 2.8 4.8 98 0.1 N 6 7 3 4 1020.6 - 0.0
11/01:20pm 5.3 3.4 5.0 98 0.1 N 4 6 2 3 1020.5 - 0.0
11/01:10pm 5.1 3.2 4.7 97 0.2 N 4 6 2 3 1020.6 - 0.0
11/01:00pm 5.1 2.8 4.8 98 0.1 NW 6 6 3 3 1020.8 - 0.0
11/12:50pm 5.1 2.8 4.8 98 0.1 NNW 6 7 3 4 1020.9 - 0.0
11/12:40pm 4.9 2.9 4.6 98 0.1 N 4 7 2 4 1020.8 - 0.0
11/12:30pm 4.9 3.3 4.6 98 0.1 N 2 4 1 2 1021.0 - 0.0
11/12:20pm 4.8 2.8 4.5 98 0.1 NW 4 6 2 3 1021.2 - 0.0
11/12:10pm 4.7 3.1 4.4 98 0.1 N 2 4 1 2 1021.3 - 0.0
11/12:00pm 4.8 2.4 4.5 98 0.1 NNE 6 7 3 4 1021.6 - 0.0
11/11:50am 5.0 3.1 4.7 98 0.1 N 4 6 2 3 1021.7 - 0.0
11/11:40am 5.0 3.1 4.7 98 0.1 N 4 7 2 4 1021.8 - 0.0
11/11:30am 5.0 3.1 4.7 98 0.1 N 4 6 2 3 1022.0 - 0.0
11/11:20am 4.9 3.3 4.6 98 0.1 NW 2 6 1 3 1022.1 - 0.0
11/11:10am 4.4 3.1 4.1 98 0.1 CALM 0 4 0 2 1022.4 - 0.0
11/11:00am 4.2 2.5 3.9 98 0.1 WSW 2 4 1 2 1022.8 - 0.0
11/10:50am 4.2 2.5 3.9 98 0.1 WSW 2 4 1 2 1023.1 - 0.0
11/10:40am 4.2 2.9 4.0 99 0.1 CALM 0 4 0 2 1023.2 - 0.0
11/10:30am 4.3 2.6 4.0 98 0.1 N 2 6 1 3 1023.3 - 0.0
11/10:20am 3.9 2.1 3.6 98 0.1 N 2 6 1 3 1023.4 - 0.0
11/10:10am 3.8 2.4 3.5 98 0.1 CALM 0 2 0 1 1023.5 - 0.0
11/10:00am 3.6 2.2 3.3 98 0.1 CALM 0 2 0 1 1023.6 - 0.0
11/09:50am 3.6 2.2 3.3 98 0.1 CALM 0 2 0 1 1023.6 - 0.0
11/09:40am 3.4 1.5 3.1 98 0.1 SW 2 4 1 2 1023.6 - 0.0
11/09:30am 3.2 1.3 3.0 99 0.1 SW 2 4 1 2 1023.7 - 0.0
11/09:20am 3.0 1.4 2.7 98 0.1 CALM 0 2 0 1 1023.8 - 0.0
11/09:10am 2.9 0.6 2.6 98 0.1 SSW 4 4 2 2 1023.9 - 0.0
11/09:00am 2.9 1.0 2.7 99 0.1 SW 2 4 1 2 1023.8 - 0.2
11/08:50am 3.1 1.2 2.9 99 0.1 W 2 4 1 2 1023.7 - 0.2
11/08:40am 2.9 0.6 2.7 99 0.1 NNW 4 6 2 3 1023.6 - 0.2
11/08:30am 2.8 0.8 2.5 98 0.1 NW 2 4 1 2 1023.6 - 0.2
11/08:20am 2.6 0.6 2.4 99 0.1 N 2 4 1 2 1023.5 - 0.2
11/08:10am 2.4 0.7 2.1 98 0.1 CALM 0 0 0 0 1023.5 - 0.2
11/08:00am 2.3 0.3 2.1 99 0.1 N 2 4 1 2 1023.6 - 0.2
11/07:50am 2.1 0.4 1.9 99 0.1 CALM 0 2 0 1 1023.4 - 0.2
11/07:40am 2.1 0.0 1.8 98 0.1 S 2 2 1 1 1023.4 - 0.2
11/07:30am 2.0 0.3 1.8 99 0.1 CALM 0 0 0 0 1023.5 - 0.2
11/07:20am 2.2 0.5 2.0 99 0.1 CALM 0 0 0 0 1023.4 - 0.2
11/07:10am 2.4 0.0 2.2 99 0.1 NE 4 7 2 4 1023.4 - 0.2
11/07:00am 2.2 -0.6 1.9 98 0.1 NE 6 7 3 4 1023.2 - 0.2
11/06:50am 2.0 -0.5 1.8 99 0.1 NE 4 7 2 4 1023.1 - 0.2
11/06:40am 2.0 -0.5 1.7 98 0.1 N 4 6 2 3 1023.0 - 0.2
11/06:30am 2.1 -0.3 1.9 99 0.1 NE 4 6 2 3 1022.8 - 0.2
11/06:20am 2.3 0.2 2.0 98 0.1 S 2 4 1 2 1022.8 - 0.2
11/06:10am 2.4 0.4 2.2 99 0.1 SSW 2 4 1 2 1022.8 - 0.0
11/06:00am 2.4 0.8 2.2 99 0.1 CALM 0 0 0 0 1022.7 - 0.0
11/05:50am 2.4 0.7 2.1 98 0.1 CALM 0 2 0 1 1022.6 - 0.0
11/05:40am 2.3 0.3 2.1 99 0.1 S 2 4 1 2 1022.6 - 0.0
11/05:30am 2.3 -0.5 2.0 98 0.1 SSW 6 7 3 4 1022.6 - 0.0
11/05:20am 2.5 0.1 2.3 99 0.1 WSW 4 6 2 3 1022.5 - 0.0
11/05:10am 2.5 0.1 2.3 99 0.1 E 4 7 2 4 1022.5 - 0.0
11/05:00am 2.3 0.3 2.1 99 0.1 SE 2 4 1 2 1022.5 - 0.0
11/04:50am 2.3 -0.1 2.0 98 0.1 SSE 4 4 2 2 1022.5 - 0.0
11/04:40am 2.5 0.5 2.2 98 0.1 NE 2 4 1 2 1022.4 - 0.0
11/04:30am 2.5 0.1 2.2 98 0.1 E 4 6 2 3 1022.4 - 0.0
11/04:20am 2.7 0.7 2.4 98 0.1 SSE 2 4 1 2 1022.5 - 0.0
11/04:10am 2.8 0.8 2.5 98 0.1 SE 2 4 1 2 1022.5 - 0.0
11/04:00am 2.8 0.5 2.5 98 0.1 SE 4 4 2 2 1022.5 - 0.0
11/03:50am 2.9 1.0 2.7 99 0.1 SE 2 4 1 2 1022.4 - 0.0
11/03:40am 3.1 0.8 2.8 98 0.1 S 4 6 2 3 1022.3 - 0.0
11/03:30am 3.1 1.2 2.8 98 0.1 S 2 4 1 2 1022.4 - 0.0
11/03:20am 3.2 1.7 2.9 98 0.1 CALM 0 2 0 1 1022.6 - 0.0
11/03:10am 3.3 1.8 2.9 97 0.2 CALM 0 2 0 1 1022.8 - 0.0
11/03:00am 3.3 1.4 3.0 98 0.1 SE 2 4 1 2 1022.8 - 0.0
11/02:50am 3.3 1.4 3.0 98 0.1 SE 2 4 1 2 1023.1 - 0.0
11/02:40am 3.3 1.0 3.0 98 0.1 SE 4 4 2 2 1023.1 - 0.0
11/02:30am 3.3 1.4 3.0 98 0.1 ESE 2 4 1 2 1023.1 - 0.0
11/02:20am 3.3 1.8 3.0 98 0.1 CALM 0 4 0 2 1023.4 - 0.0
11/02:10am 3.2 1.7 2.8 97 0.2 CALM 0 0 0 0 1023.3 - 0.0
11/02:00am 3.0 1.4 2.6 97 0.2 CALM 0 2 0 1 1023.2 - 0.0
11/01:50am 3.2 0.5 2.7 96 0.2 SSW 6 7 3 4 1023.2 - 0.0
11/01:40am 3.3 0.6 2.8 96 0.2 SSE 6 7 3 4 1023.2 - 0.0
11/01:30am 3.5 2.0 2.9 96 0.3 CALM 0 0 0 0 1023.2 - 0.0
11/01:20am 3.6 2.1 3.0 96 0.3 CALM 0 2 0 1 1023.1 - 0.0
11/01:10am 3.9 1.7 3.1 94 0.3 SSW 4 6 2 3 1023.1 - 0.0
11/01:00am 4.4 2.6 3.3 93 0.5 SSW 2 4 1 2 1023.0 - 0.0
11/12:50am 5.3 3.5 3.3 87 0.9 NNE 2 4 1 2 1022.8 - 0.0
11/12:40am 5.5 3.3 3.3 86 1.0 N 4 6 2 3 1022.9 - 0.0
11/12:30am 5.7 3.9 3.5 86 1.0 WSW 2 4 1 2 1023.1 - 0.0
11/12:20am 6.0 3.8 3.5 84 1.1 S 4 7 2 4 1023.2 - 0.0
11/12:10am 6.2 2.3 3.4 82 1.2 S 13 15 7 8 1023.2 - 0.0
11/12:00am 6.1 1.8 3.3 82 1.2 S 15 17 8 9 1023.3 - 0.0
 
Date/Time
EST
Temp
°C
App
Temp
°C
Dew
Point
°C
Rel
Hum
%
Delta-T
°C
Wind Press
QNH
hPa
Press
MSL
hPa
Rain since
9am
mm
Dir  Spd
km/h
Gust
km/h
Spd
kts
Gust
kts
10/11:50pm 6.0 2.1 3.3 83 1.2 S 13 13 7 7 1023.4 - 0.0
10/11:40pm 6.2 1.9 3.5 83 1.2 SSW 15 19 8 10 1023.5 - 0.0
10/11:30pm 6.2 1.6 3.5 83 1.2 SSW 17 20 9 11 1023.6 - 0.0
10/11:20pm 6.0 1.4 3.8 86 1.0 SSW 17 19 9 10 1023.8 - 0.0
10/11:10pm 6.0 1.8 4.0 87 0.9 S 15 19 8 10 1023.7 - 0.0
10/11:00pm 6.1 1.5 3.9 86 1.0 SSW 17 20 9 11 1023.8 - 0.0
10/10:50pm 5.9 1.8 4.2 89 0.8 SSW 15 17 8 9 1023.8 - 0.0
10/10:40pm 6.2 1.7 4.2 87 0.9 SSW 17 20 9 11 1024.0 - 0.0
10/10:30pm 6.3 1.8 4.1 86 1.0 S 17 19 9 10 1024.0 - 0.0
10/10:20pm 6.5 1.6 4.1 85 1.1 S 19 19 10 10 1023.9 - 0.0
10/10:10pm 6.6 1.7 3.9 83 1.2 S 19 22 10 12 1023.8 - 0.0
10/10:00pm 6.7 1.8 3.9 82 1.3 S 19 20 10 11 1023.8 - 0.0

Latest Capital City Observations: Canberra | Sydney | Melbourne | Brisbane | Adelaide | Perth | Hobart | Darwin

Other formats

Comma delimited format used in spreadsheet applications
http://www.bom.gov.au/fwo/IDN60903/IDN60903.99762.axf

JavaScript Object Notation format (JSON) in row-major order
http://www.bom.gov.au/fwo/IDN60903/IDN60903.99762.json

Data quality

Most of these data are generated automatically and are frequently updated. Quality checks on data are not normally performed. It is possible for incorrect values to appear. Refer to information at About Latest Weather Observations and please check the disclaimer before using these data.